Time;durP1;ratioP1;P1;durP2;ratioP2;P2;SDS_P1;SDS_P2;PMS_P1;PMS_P2;Temp;Humidity;BMP_temperature;BMP_pressure;BME280_temperature;BME280_humidity;BME280_pressure;Samples;Min_cycle;Max_cycle;Signal;HPM_P1;HPM_P2
2021/03/31 00:00:23;;;;;;;3.63;2.58;;;;;;;3.33;84.60;94027.44;2089976;28;20159;-83
2021/03/31 00:01:24;;;;;;;4.87;3.20;;;;;;;3.25;83.71;94026.56;2099577;28;20031;-83
2021/03/31 00:02:24;;;;;;;4.65;3.08;;;;;;;3.22;84.55;94028.00;2090147;28;20443;-83
2021/03/31 00:03:25;;;;;;;6.68;3.25;;;;;;;3.11;83.61;94023.59;2090100;28;20495;-83
2021/03/31 00:04:25;;;;;;;6.28;2.88;;;;;;;3.17;84.30;94025.63;2097946;28;20123;-82
2021/03/31 00:05:26;;;;;;;5.47;3.33;;;;;;;3.19;84.47;94030.56;2098184;28;20047;-83
2021/03/31 00:06:27;;;;;;;5.18;3.25;;;;;;;3.25;84.71;94026.56;2105112;28;20035;-82
2021/03/31 00:07:27;;;;;;;3.55;3.22;;;;;;;3.24;84.76;94025.00;2115156;28;20027;-83
2021/03/31 00:08:28;;;;;;;3.28;2.83;;;;;;;3.14;84.11;94025.56;2098338;28;20433;-82
2021/03/31 00:09:28;;;;;;;5.57;3.13;;;;;;;3.09;85.30;94023.97;2101266;28;20729;-84
2021/03/31 00:10:50;;;;;;;4.20;2.95;;;;;;;3.03;84.50;94026.13;2098233;28;20032;-83
2021/03/31 00:11:50;;;;;;;3.80;3.03;;;;;;;3.01;85.90;94020.38;2101040;28;20169;-82
2021/03/31 00:12:51;;;;;;;6.68;2.95;;;;;;;3.01;85.37;94022.28;2100086;28;20119;-83
2021/03/31 00:13:51;;;;;;;5.97;3.15;;;;;;;3.05;85.68;94014.44;2106627;28;20536;-83
2021/03/31 00:14:52;;;;;;;5.20;3.10;;;;;;;3.10;85.09;94014.16;2098182;28;20027;-83
2021/03/31 00:15:54;;;;;;;9.40;3.20;;;;;;;3.06;85.49;94013.31;2098137;28;20527;-82
2021/03/31 00:16:55;;;;;;;3.88;2.55;;;;;;;3.05;85.60;94012.56;2090390;28;20025;-82
2021/03/31 00:17:56;;;;;;;6.43;2.90;;;;;;;3.05;85.19;94023.13;2098288;28;20027;-83
2021/03/31 00:18:56;;;;;;;7.32;2.92;;;;;;;3.09;84.86;94018.69;2106651;28;20024;-84
2021/03/31 00:19:56;;;;;;;4.65;2.95;;;;;;;3.03;84.96;94017.44;2106543;28;20029;-83
2021/03/31 00:20:58;;;;;;;3.25;2.92;;;;;;;3.00;84.82;94020.75;2098127;28;20028;-83
2021/03/31 00:21:58;;;;;;;3.60;3.00;;;;;;;3.03;84.87;94012.13;2090021;28;20025;-83
2021/03/31 00:23:01;;;;;;;5.30;2.70;;;;;;;2.87;84.65;94021.97;2098156;28;20408;-83
2021/03/31 00:24:01;;;;;;;4.32;3.00;;;;;;;2.84;84.83;94015.50;2098281;28;20493;-84
2021/03/31 00:25:03;;;;;;;6.90;2.80;;;;;;;2.84;85.45;94018.13;2098059;28;20020;-83
2021/03/31 00:26:03;;;;;;;7.68;2.90;;;;;;;2.89;85.57;94019.75;2097920;28;20032;-84
2021/03/31 00:27:04;;;;;;;3.20;2.70;;;;;;;2.91;85.51;94017.53;2089863;28;20777;-83
2021/03/31 00:28:06;;;;;;;3.75;2.50;;;;;;;2.84;85.02;94012.09;2089882;28;20025;-83
2021/03/31 00:29:06;;;;;;;3.00;2.70;;;;;;;2.71;84.73;94022.75;2090055;28;20087;-83
2021/03/31 00:30:15;;;;;;;3.85;2.80;;;;;;;2.77;85.46;94010.84;2098016;28;20029;-83
2021/03/31 00:31:15;;;;;;;4.95;2.95;;;;;;;2.75;85.32;94012.28;2100018;28;20095;-83
2021/03/31 00:32:16;;;;;;;4.20;2.63;;;;;;;2.77;85.55;94012.72;2098104;28;20020;-82
2021/03/31 00:33:17;;;;;;;5.25;3.00;;;;;;;2.66;86.02;94004.53;2097956;28;20027;-83
2021/03/31 00:34:18;;;;;;;4.88;2.72;;;;;;;2.70;85.75;94008.03;2114830;28;20023;-82
2021/03/31 00:35:18;;;;;;;4.60;2.83;;;;;;;2.69;nan;94011.78;2098272;28;20031;-82
2021/03/31 00:36:19;;;;;;;6.07;2.58;;;;;;;2.70;85.35;94007.25;2106499;28;20031;-83
2021/03/31 00:37:19;;;;;;;4.32;3.00;;;;;;;2.63;86.01;94017.66;2115039;28;20034;-83
2021/03/31 00:38:20;;;;;;;7.20;2.80;;;;;;;2.79;85.29;93999.91;2106323;28;20024;-83
2021/03/31 00:39:20;;;;;;;6.55;2.60;;;;;;;2.70;84.32;94005.38;2089753;28;20028;-83
2021/03/31 00:40:24;;;;;;;5.22;2.60;;;;;;;2.72;85.50;94005.03;2097973;28;20084;-83
2021/03/31 00:41:24;;;;;;;6.30;3.03;;;;;;;2.66;85.78;94001.13;2106727;28;20412;-83
2021/03/31 00:42:25;;;;;;;3.50;2.47;;;;;;;2.64;86.14;94004.13;2106484;28;20031;-84
2021/03/31 00:43:26;;;;;;;2.90;2.63;;;;;;;2.58;86.19;94010.00;2106166;28;20114;-83
2021/03/31 00:44:26;;;;;;;3.20;2.90;;;;;;;2.60;86.11;93994.59;2097234;28;20028;-84
2021/03/31 00:45:26;;;;;;;4.47;2.40;;;;;;;2.63;86.21;93999.94;2097786;28;20032;-84
2021/03/31 00:46:27;;;;;;;6.05;2.60;;;;;;;2.59;86.71;94001.75;2097908;28;20052;-84
2021/03/31 00:47:27;;;;;;;6.05;3.20;;;;;;;2.72;86.33;93997.13;2089660;28;20029;-85
2021/03/31 00:48:28;;;;;;;3.60;2.40;;;;;;;2.57;84.72;93997.91;2098014;28;20392;-84
2021/03/31 00:49:28;;;;;;;4.57;2.40;;;;;;;2.53;86.08;94001.25;2106310;28;20028;-83
2021/03/31 00:50:29;;;;;;;4.07;2.75;;;;;;;2.55;86.09;93997.47;2089688;28;20131;-84
2021/03/31 00:51:30;;;;;;;4.40;2.80;;;;;;;2.53;85.42;93993.31;2097771;28;20024;-84
2021/03/31 00:52:31;;;;;;;5.72;2.95;;;;;;;2.59;86.18;94006.25;2097836;28;20025;-84
2021/03/31 00:53:36;;;;;;;4.88;2.97;;;;;;;2.52;86.66;93991.03;2081443;28;20064;-84
2021/03/31 00:54:37;;;;;;;4.85;3.00;;;;;;;2.53;86.02;93988.03;2082532;28;20720;-84
2021/03/31 00:55:37;;;;;;;3.13;2.72;;;;;;;2.56;86.44;94001.69;2089760;28;20036;-84
2021/03/31 00:56:38;;;;;;;4.28;2.92;;;;;;;2.48;86.63;93996.22;2084882;28;20474;-84
2021/03/31 00:57:40;;;;;;;4.78;2.80;;;;;;;2.50;86.21;93986.09;2106359;28;20388;-83
2021/03/31 00:58:41;;;;;;;5.10;2.75;;;;;;;2.39;86.57;93989.59;2114579;28;20039;-84
2021/03/31 00:59:41;;;;;;;3.08;2.75;;;;;;;2.44;86.40;93995.38;2105929;28;20035;-84
2021/03/31 01:00:42;;;;;;;5.63;2.70;;;;;;;2.43;86.34;93998.38;2097785;28;20107;-85
2021/03/31 01:01:44;;;;;;;3.92;2.60;;;;;;;2.43;87.03;93993.09;2097752;28;20491;-83
2021/03/31 01:02:45;;;;;;;5.65;2.63;;;;;;;2.41;86.49;93996.03;2106252;28;20475;-85
2021/03/31 01:03:46;;;;;;;9.52;2.75;;;;;;;2.41;86.92;93990.78;2097683;28;20515;-82
2021/03/31 01:04:46;;;;;;;5.38;2.63;;;;;;;2.50;86.45;93994.03;2097656;28;20025;-83
2021/03/31 01:05:47;;;;;;;5.82;2.88;;;;;;;2.44;86.81;93994.63;2106234;28;20020;-85
2021/03/31 01:06:48;;;;;;;4.35;2.75;;;;;;;2.39;86.06;93992.25;2097634;28;20118;-83
2021/03/31 01:07:49;;;;;;;4.60;2.70;;;;;;;2.51;85.50;93985.00;2097822;28;20025;-83
2021/03/31 01:08:49;;;;;;;3.13;2.50;;;;;;;2.39;85.76;93993.00;2106296;28;20024;-83
2021/03/31 01:09:53;;;;;;;3.58;2.40;;;;;;;2.45;85.77;93986.34;2106186;28;20031;-84
2021/03/31 01:10:56;;;;;;;5.25;2.45;;;;;;;2.43;85.92;93988.56;2090272;28;20469;-83
2021/03/31 01:12:03;;;;;;;6.57;2.60;;;;;;;2.39;86.42;93989.59;2090000;28;20063;-82
2021/03/31 01:13:28;;;;;;;3.83;2.80;;;;;;;2.43;86.51;93978.03;2090897;28;20119;-83
2021/03/31 01:14:46;;;;;;;4.15;2.75;;;;;;;2.31;86.07;93985.25;2104261;28;20028;-84
2021/03/31 01:15:57;;;;;;;3.60;2.30;;;;;;;2.34;86.84;93987.22;2106140;28;20090;-83
2021/03/31 01:17:06;;;;;;;6.25;3.58;;;;;;;2.33;86.46;93983.81;2098811;28;20581;-83
2021/03/31 01:18:12;;;;;;;4.78;2.25;;;;;;;2.32;86.46;93987.53;2091868;28;20122;-83
2021/03/31 01:19:18;;;;;;;6.22;2.50;;;;;;;2.35;87.36;93978.19;2090496;28;20044;-82
2021/03/31 01:20:22;;;;;;;4.43;2.60;;;;;;;2.34;86.58;93981.94;2106680;28;20098;-83
2021/03/31 01:21:22;;;;;;;5.88;2.45;;;;;;;2.46;86.49;93977.34;2105857;28;20028;-83
2021/03/31 01:22:53;;;;;;;4.25;2.58;;;;;;;2.33;86.07;93980.41;2089358;28;20025;-84
2021/03/31 01:24:34;;;;;;;4.03;2.45;;;;;;;2.35;85.94;93978.97;2097514;28;20081;-83
2021/03/31 01:25:53;;;;;;;2.92;2.40;;;;;;;2.25;86.33;93972.34;2096138;28;20024;-83
2021/03/31 01:26:57;;;;;;;2.80;2.35;;;;;;;2.16;86.78;93971.75;2094262;28;20017;-83
2021/03/31 01:28:03;;;;;;;6.97;2.78;;;;;;;2.20;86.82;93971.84;2089973;28;20029;-83
2021/03/31 01:29:27;;;;;;;4.40;2.60;;;;;;;2.12;86.27;93967.50;2106686;28;20372;-83
2021/03/31 01:30:36;;;;;;;3.38;2.35;;;;;;;2.12;86.43;93972.78;2108999;28;20027;-83
2021/03/31 01:31:45;;;;;;;3.97;2.60;;;;;;;2.08;86.52;93966.66;2105760;28;20377;-82
2021/03/31 01:33:25;;;;;;;2.38;2.17;;;;;;;2.13;86.48;93963.75;2090551;28;20494;-83
2021/03/31 01:34:42;;;;;;;4.45;2.13;;;;;;;2.11;86.65;93969.38;2084388;28;20557;-83
2021/03/31 01:35:43;;;;;;;6.20;2.70;;;;;;;2.20;87.09;93971.84;2093669;28;20068;-83
2021/03/31 01:36:46;;;;;;;4.88;2.53;;;;;;;2.08;86.94;93958.72;2097565;28;20028;-83
2021/03/31 01:37:54;;;;;;;3.08;2.42;;;;;;;2.03;86.99;93965.03;2112138;28;20028;-83
2021/03/31 01:38:59;;;;;;;4.07;2.40;;;;;;;2.05;87.59;93959.41;2098449;28;20032;-83
2021/03/31 01:40:05;;;;;;;4.40;2.72;;;;;;;2.03;88.04;93961.63;2090347;28;20504;-84
2021/03/31 01:41:06;;;;;;;3.17;2.40;;;;;;;1.98;87.87;93963.41;2106551;28;20106;-84
2021/03/31 01:42:10;;;;;;;3.53;1.95;;;;;;;1.97;87.67;93961.84;2097384;28;20024;-84
2021/03/31 01:43:14;;;;;;;6.93;2.83;;;;;;;1.96;88.44;93960.34;2106251;28;20541;-83
2021/03/31 01:44:16;;;;;;;4.03;2.35;;;;;;;1.95;88.03;93961.44;2097940;28;20077;-83
2021/03/31 01:45:21;;;;;;;4.97;2.90;;;;;;;2.00;87.71;93955.16;2089477;28;20032;-83
2021/03/31 01:46:30;;;;;;;3.38;2.50;;;;;;;2.07;87.80;93947.41;2090148;28;20051;-84
2021/03/31 01:47:35;;;;;;;5.05;2.65;;;;;;;2.01;88.23;93956.69;2100085;28;20024;-83
2021/03/31 01:48:36;;;;;;;3.28;2.47;;;;;;;1.99;88.11;93951.00;2089828;28;20032;-83
2021/03/31 01:49:37;;;;;;;5.55;2.97;;;;;;;1.94;88.23;93959.16;2097642;28;20119;-83
2021/03/31 01:50:39;;;;;;;4.35;2.42;;;;;;;1.95;87.91;93958.81;2105899;28;20826;-82
2021/03/31 01:51:41;;;;;;;5.10;2.90;;;;;;;1.90;87.82;93953.78;2097546;28;20549;-83
2021/03/31 01:52:42;;;;;;;4.20;2.63;;;;;;;1.91;88.30;93947.41;2089431;28;20029;-83
2021/03/31 01:53:43;;;;;;;3.05;2.58;;;;;;;1.92;88.73;93948.94;2089315;28;20017;-83
2021/03/31 01:54:45;;;;;;;3.83;2.88;;;;;;;1.91;88.52;93957.19;2089247;28;20017;-83
2021/03/31 01:55:51;;;;;;;5.68;2.63;;;;;;;1.83;86.39;93953.59;2088990;28;20487;-83
2021/03/31 01:56:53;;;;;;;4.93;2.85;;;;;;;1.81;87.33;93953.19;2090176;28;20021;-83
2021/03/31 01:57:54;;;;;;;4.78;2.60;;;;;;;1.87;86.61;93951.81;2097852;28;20025;-83
2021/03/31 01:58:57;;;;;;;2.90;2.55;;;;;;;1.86;86.87;93958.22;2097563;28;20032;-83
2021/03/31 01:59:59;;;;;;;4.63;3.00;;;;;;;1.79;86.77;93950.13;2105940;28;20030;-83
2021/03/31 02:01:00;;;;;;;3.17;2.63;;;;;;;1.80;87.07;93949.03;2097474;28;20063;-83
2021/03/31 02:02:01;;;;;;;4.75;2.75;;;;;;;1.71;86.82;93945.78;2105777;28;20081;-83
2021/03/31 02:03:02;;;;;;;4.18;3.13;;;;;;;1.70;88.12;93947.66;2105711;28;20028;-82
2021/03/31 02:04:04;;;;;;;5.68;2.63;;;;;;;1.66;88.20;93948.66;2097022;28;20469;-84
2021/03/31 02:05:09;;;;;;;6.57;2.60;;;;;;;1.68;87.88;93955.13;2081126;28;20034;-83
2021/03/31 02:06:10;;;;;;;3.30;2.42;;;;;;;1.79;87.61;93942.22;2095310;28;20123;-82
2021/03/31 02:07:11;;;;;;;3.63;2.92;;;;;;;1.70;87.29;93942.38;2102318;28;20024;-83
2021/03/31 02:08:13;;;;;;;5.15;2.70;;;;;;;1.73;87.84;93943.56;2089056;28;20017;-84
2021/03/31 02:09:14;;;;;;;4.00;2.85;;;;;;;1.70;88.54;93946.88;2089413;28;20458;-84
2021/03/31 02:10:16;;;;;;;4.00;2.65;;;;;;;1.73;88.84;93952.25;2097353;28;20016;-83
2021/03/31 02:11:17;;;;;;;2.95;2.60;;;;;;;1.76;87.85;93948.19;2097586;28;20021;-82
2021/03/31 02:12:21;;;;;;;6.18;2.70;;;;;;;1.72;87.70;93945.44;2105766;28;20020;-83
2021/03/31 02:13:22;;;;;;;4.07;2.22;;;;;;;1.75;87.19;93950.03;2106351;28;20043;-83
2021/03/31 02:14:23;;;;;;;5.40;2.97;;;;;;;1.78;87.25;93940.69;2105603;28;20016;-83
2021/03/31 02:15:29;;;;;;;4.68;3.00;;;;;;;1.66;87.91;93930.22;2089213;28;20021;-83
2021/03/31 02:16:34;;;;;;;5.05;2.70;;;;;;;1.66;88.60;93938.88;2098746;28;20039;-83
2021/03/31 02:17:37;;;;;;;3.83;2.85;;;;;;;1.67;88.50;93937.81;2097680;28;20159;-83
2021/03/31 02:18:37;;;;;;;4.97;2.90;;;;;;;1.61;89.68;93935.75;2097873;28;20021;-83
2021/03/31 02:19:39;;;;;;;6.55;2.70;;;;;;;1.63;89.79;93939.56;2097369;28;20720;-82
2021/03/31 02:20:40;;;;;;;6.03;2.80;;;;;;;1.61;89.27;93931.22;2080890;28;20021;-83
2021/03/31 02:21:42;;;;;;;4.80;2.63;;;;;;;1.63;88.95;93934.31;2089168;28;20044;-83
2021/03/31 02:22:45;;;;;;;8.68;2.90;;;;;;;1.65;88.70;93933.97;2094246;28;20028;-83
2021/03/31 02:23:47;;;;;;;2.97;2.40;;;;;;;1.62;88.16;93934.63;2097754;28;20382;-82
2021/03/31 02:24:48;;;;;;;3.40;2.80;;;;;;;1.62;88.33;93929.34;2105775;28;20107;-83
2021/03/31 02:25:49;;;;;;;6.00;3.10;;;;;;;1.57;87.85;93932.25;2096923;28;20017;-83
2021/03/31 02:26:50;;;;;;;3.63;2.63;;;;;;;1.63;88.58;93930.91;2089013;28;20028;-83
2021/03/31 02:27:50;;;;;;;4.97;2.90;;;;;;;1.59;88.43;93936.09;2096986;28;20043;-82
2021/03/31 02:28:52;;;;;;;4.05;2.72;;;;;;;1.58;88.40;93934.56;2097188;28;20028;-83
2021/03/31 02:29:53;;;;;;;3.88;2.63;;;;;;;1.71;88.40;93933.38;2089010;28;20025;-83
2021/03/31 02:30:53;;;;;;;5.55;3.05;;;;;;;1.60;88.99;93937.63;2087140;28;20044;-83
2021/03/31 02:31:56;;;;;;;4.22;2.38;;;;;;;1.57;88.82;93934.88;2097030;28;20073;-82
2021/03/31 02:33:00;;;;;;;3.10;2.50;;;;;;;1.55;88.65;93940.50;2097445;28;20028;-83
2021/03/31 02:34:02;;;;;;;4.18;2.60;;;;;;;1.56;89.02;93933.34;2098072;28;20541;-83
2021/03/31 02:35:05;;;;;;;6.00;2.75;;;;;;;1.50;89.00;93938.88;2114151;28;20121;-83
2021/03/31 02:36:06;;;;;;;4.15;2.70;;;;;;;1.43;89.56;93937.91;2105658;28;20066;-83
2021/03/31 02:37:06;;;;;;;3.78;2.70;;;;;;;1.47;89.74;93934.28;2104913;28;20610;-82
2021/03/31 02:38:10;;;;;;;4.97;2.90;;;;;;;1.42;89.51;93936.41;2096728;28;20765;-83
2021/03/31 02:39:11;;;;;;;4.47;2.50;;;;;;;1.45;88.41;93933.09;2089082;28;20024;-82
2021/03/31 02:40:13;;;;;;;7.38;2.63;;;;;;;1.46;88.42;93930.13;2104801;28;20028;-83
2021/03/31 02:41:14;;;;;;;4.13;2.65;;;;;;;1.43;88.75;93930.78;2088409;28;20025;-83
2021/03/31 02:42:17;;;;;;;4.63;2.78;;;;;;;1.40;89.16;93933.31;2093611;28;20032;-82
2021/03/31 02:43:19;;;;;;;6.38;2.92;;;;;;;1.40;89.11;93925.41;2105459;28;20050;-82
2021/03/31 02:44:21;;;;;;;6.90;2.97;;;;;;;1.38;90.15;93935.53;2096676;28;20030;-83
2021/03/31 02:45:24;;;;;;;3.35;2.58;;;;;;;1.37;88.78;93926.88;2096465;28;20508;-83
2021/03/31 02:46:25;;;;;;;6.82;3.25;;;;;;;1.39;89.61;93929.91;2093116;28;20107;-83
2021/03/31 02:47:29;;;;;;;5.60;3.13;;;;;;;1.37;89.16;93921.59;2096533;28;20397;-83
2021/03/31 02:48:31;;;;;;;4.60;2.60;;;;;;;1.47;89.74;93931.63;2097277;28;20119;-82
2021/03/31 02:49:33;;;;;;;4.85;2.85;;;;;;;1.42;89.88;93926.63;2088843;28;20028;-83
2021/03/31 02:50:34;;;;;;;3.70;2.65;;;;;;;1.42;89.75;93925.88;2096762;28;20052;-83
2021/03/31 02:51:37;;;;;;;3.70;2.70;;;;;;;1.39;89.79;93914.13;2105364;28;20024;-83
2021/03/31 02:52:39;;;;;;;3.88;2.90;;;;;;;1.41;89.86;93916.44;2097179;28;20119;-82
2021/03/31 02:53:41;;;;;;;5.95;2.67;;;;;;;1.39;89.66;93916.75;2097471;28;20032;-84
2021/03/31 02:54:42;;;;;;;5.40;3.00;;;;;;;1.30;89.47;93918.78;2097362;28;20024;-83
2021/03/31 02:55:43;;;;;;;5.85;2.67;;;;;;;1.32;89.45;93916.59;2097122;28;20541;-83
2021/03/31 02:56:45;;;;;;;4.82;2.97;;;;;;;1.40;89.39;93918.28;2088813;28;20025;-83
2021/03/31 02:57:46;;;;;;;5.05;2.88;;;;;;;1.35;89.42;93910.63;2102189;28;20023;-83
2021/03/31 02:58:47;;;;;;;5.72;2.97;;;;;;;1.42;89.18;93918.72;2097412;28;20027;-84
2021/03/31 02:59:49;;;;;;;4.82;2.85;;;;;;;1.41;88.85;93913.81;2105580;28;20380;-83
2021/03/31 03:00:50;;;;;;;5.65;3.28;;;;;;;1.36;88.39;93912.19;2105578;28;20031;-83
2021/03/31 03:01:52;;;;;;;9.82;3.70;;;;;;;1.40;88.70;93918.28;2088979;28;20443;-84
2021/03/31 03:02:53;;;;;;;12.43;4.35;;;;;;;1.37;89.07;93918.22;2089170;28;20017;-83
2021/03/31 03:03:57;;;;;;;20.13;3.83;;;;;;;1.36;88.83;93912.19;2097142;28;20024;-83
2021/03/31 03:04:58;;;;;;;7.70;3.25;;;;;;;1.33;88.91;93910.22;2089097;28;20025;-83
2021/03/31 03:05:59;;;;;;;14.55;3.85;;;;;;;1.30;89.44;93913.50;2089080;28;20017;-83
2021/03/31 03:07:00;;;;;;;17.63;3.50;;;;;;;1.31;88.93;93911.63;2105839;28;20035;-83
2021/03/31 03:08:03;;;;;;;14.32;3.33;;;;;;;1.21;88.81;93907.63;2106632;28;20511;-83
2021/03/31 03:09:06;;;;;;;7.00;3.15;;;;;;;1.33;88.71;93901.53;2090830;28;20056;-83
2021/03/31 03:10:09;;;;;;;10.75;3.42;;;;;;;1.29;89.31;93906.72;2099348;28;20020;-84
2021/03/31 03:11:10;;;;;;;7.03;2.95;;;;;;;1.30;89.21;93912.75;2098939;28;20079;-83
2021/03/31 03:12:12;;;;;;;4.35;2.78;;;;;;;1.28;90.57;93909.69;2090443;28;20021;-83
2021/03/31 03:13:13;;;;;;;4.85;2.90;;;;;;;1.29;90.34;93909.34;2090517;28;20712;-82
2021/03/31 03:14:15;;;;;;;4.82;2.92;;;;;;;1.36;89.38;93916.66;2082112;28;20073;-83
2021/03/31 03:15:18;;;;;;;8.27;3.03;;;;;;;1.33;88.98;93909.44;2090603;28;20020;-83
2021/03/31 03:16:20;;;;;;;6.80;3.33;;;;;;;1.28;89.45;93907.06;2099973;28;20021;-83
2021/03/31 03:17:21;;;;;;;4.82;2.95;;;;;;;1.35;89.88;93921.16;2098815;28;20024;-82
2021/03/31 03:18:22;;;;;;;4.70;2.80;;;;;;;1.33;90.06;93915.47;2090395;28;20075;-83
2021/03/31 03:19:22;;;;;;;5.82;2.60;;;;;;;1.25;89.92;93914.53;2106857;28;20058;-84
2021/03/31 03:20:24;;;;;;;6.43;3.15;;;;;;;1.28;89.64;93917.59;2107079;28;20525;-83
2021/03/31 03:21:28;;;;;;;3.97;2.67;;;;;;;1.34;89.74;93913.59;2107209;28;20069;-82
2021/03/31 03:22:28;;;;;;;6.85;2.92;;;;;;;1.33;90.27;93912.09;2107110;28;20075;-82
2021/03/31 03:23:31;;;;;;;8.35;2.78;;;;;;;1.31;90.08;93920.31;2090128;28;20025;-82
2021/03/31 03:24:33;;;;;;;4.20;2.60;;;;;;;1.35;89.35;93915.91;2099024;28;20025;-82
2021/03/31 03:25:35;;;;;;;5.85;2.75;;;;;;;1.30;89.22;93910.13;2106556;28;20517;-82
2021/03/31 03:26:37;;;;;;;4.10;2.70;;;;;;;1.22;90.00;93915.19;2098780;28;20020;-83
2021/03/31 03:27:41;;;;;;;5.80;2.90;;;;;;;1.20;90.64;93914.00;2107033;28;20024;-82
2021/03/31 03:28:46;;;;;;;4.43;3.20;;;;;;;1.17;90.61;93915.44;2098916;28;20558;-84
2021/03/31 03:29:48;;;;;;;5.82;3.15;;;;;;;1.19;91.02;93912.47;2098516;28;20048;-83
2021/03/31 03:30:50;;;;;;;4.38;3.00;;;;;;;1.16;91.07;93921.81;2098886;28;20115;-82
2021/03/31 03:31:51;;;;;;;5.15;3.10;;;;;;;1.16;91.45;93907.88;2098331;28;20115;-82
2021/03/31 03:32:53;;;;;;;3.03;2.72;;;;;;;1.18;91.25;93906.44;2098524;28;20036;-83
2021/03/31 03:33:53;;;;;;;5.13;2.92;;;;;;;1.21;91.08;93910.25;2098482;28;20115;-83
2021/03/31 03:34:54;;;;;;;7.25;3.00;;;;;;;1.21;91.34;93910.25;2100468;28;20020;-83
2021/03/31 03:35:55;;;;;;;5.15;3.05;;;;;;;1.13;90.88;93916.44;2098628;28;20123;-84
2021/03/31 03:36:56;;;;;;;4.95;2.50;;;;;;;1.16;91.71;93918.41;2106736;28;20024;-83
2021/03/31 03:37:57;;;;;;;4.53;2.78;;;;;;;1.19;91.59;93904.59;2098369;28;20021;-82
2021/03/31 03:38:57;;;;;;;5.90;2.90;;;;;;;1.15;91.70;93912.38;2098442;28;20397;-83
2021/03/31 03:40:01;;;;;;;3.65;2.88;;;;;;;1.17;91.89;93904.91;2113426;28;20019;-83
2021/03/31 03:41:07;;;;;;;3.97;2.75;;;;;;;1.20;91.79;93908.75;2106759;28;20024;-82
2021/03/31 03:42:08;;;;;;;6.35;3.00;;;;;;;1.21;91.78;93908.41;2091208;28;20027;-83
2021/03/31 03:43:08;;;;;;;5.35;2.88;;;;;;;1.18;90.91;93911.69;2098399;28;20946;-82
2021/03/31 03:44:09;;;;;;;10.05;2.95;;;;;;;1.18;90.61;93911.69;2098436;28;20020;-83
2021/03/31 03:45:10;;;;;;;5.90;3.15;;;;;;;1.22;91.09;93909.91;2090157;28;20044;-83
2021/03/31 03:46:12;;;;;;;6.90;2.85;;;;;;;1.23;91.50;93911.47;2090283;28;20441;-83
2021/03/31 03:47:13;;;;;;;5.57;2.95;;;;;;;1.22;90.88;93912.56;2090458;28;20444;-84
2021/03/31 03:48:14;;;;;;;5.75;2.60;;;;;;;1.23;91.16;93908.06;2090163;28;20119;-83
2021/03/31 03:49:14;;;;;;;5.40;3.10;;;;;;;1.26;91.92;93907.38;2098414;28;20119;-83
2021/03/31 03:50:15;;;;;;;3.83;2.63;;;;;;;1.25;91.80;93906.63;2098404;28;20020;-83
2021/03/31 03:51:16;;;;;;;4.20;3.10;;;;;;;1.22;92.01;93904.66;2090197;28;20508;-83
2021/03/31 03:52:17;;;;;;;6.55;2.85;;;;;;;1.21;91.30;93905.75;2098477;28;20028;-82
2021/03/31 03:53:19;;;;;;;5.03;3.30;;;;;;;1.19;91.09;93905.34;2098145;28;20027;-83
2021/03/31 03:54:19;;;;;;;5.80;3.47;;;;;;;1.20;91.07;93908.75;2098450;28;20085;-83
2021/03/31 03:55:23;;;;;;;6.90;3.05;;;;;;;1.19;90.88;93909.84;2089996;28;20494;-82
2021/03/31 03:56:24;;;;;;;4.60;2.63;;;;;;;1.20;91.42;93906.09;2098990;28;20020;-83
2021/03/31 03:57:25;;;;;;;4.15;3.17;;;;;;;1.21;91.71;93905.75;2115136;28;20035;-83
2021/03/31 03:58:26;;;;;;;5.07;2.90;;;;;;;1.21;91.23;93910.25;2106689;28;20077;-83
2021/03/31 03:59:29;;;;;;;5.30;3.08;;;;;;;1.25;91.15;93911.13;2106691;28;20039;-83
2021/03/31 04:00:29;;;;;;;5.20;3.10;;;;;;;1.22;90.87;93906.53;2106880;28;20121;-82
2021/03/31 04:01:33;;;;;;;4.28;3.03;;;;;;;1.20;91.67;93914.00;2098339;28;20033;-83
2021/03/31 04:02:34;;;;;;;5.82;2.90;;;;;;;1.21;91.46;93912.91;2090934;28;20020;-82
2021/03/31 04:03:34;;;;;;;3.55;2.83;;;;;;;1.22;91.80;93914.41;2098199;28;20063;-83
2021/03/31 04:04:35;;;;;;;7.18;2.90;;;;;;;1.17;91.38;93906.78;2098148;28;20459;-83
2021/03/31 04:05:35;;;;;;;4.35;3.15;;;;;;;1.17;91.33;93912.81;2098201;28;20027;-83
2021/03/31 04:06:36;;;;;;;2.92;2.63;;;;;;;1.14;90.90;93910.84;2089958;28;20062;-83
2021/03/31 04:07:37;;;;;;;5.80;2.67;;;;;;;1.17;91.20;93910.16;2098240;28;20031;-83
2021/03/31 04:08:37;;;;;;;4.05;3.05;;;;;;;1.18;91.41;93916.19;2098162;28;20051;-82
2021/03/31 04:09:41;;;;;;;5.70;3.10;;;;;;;1.17;91.66;93912.03;2090080;28;20577;-83
2021/03/31 04:10:47;;;;;;;3.75;2.50;;;;;;;1.14;91.66;93910.06;2099189;28;20025;-82
2021/03/31 04:11:48;;;;;;;6.75;3.10;;;;;;;1.09;91.69;93916.34;2098946;28;20024;-83
2021/03/31 04:12:50;;;;;;;3.88;3.08;;;;;;;1.11;91.79;93916.03;2098282;28;20020;-83
2021/03/31 04:13:52;;;;;;;5.35;2.72;;;;;;;1.11;91.87;93916.03;2098362;28;20024;-82
2021/03/31 04:14:53;;;;;;;5.70;3.17;;;;;;;1.12;92.27;93914.91;2098375;28;20016;-83
2021/03/31 04:15:58;;;;;;;3.88;2.90;;;;;;;1.14;91.82;93915.34;2090013;28;20121;-84
2021/03/31 04:17:02;;;;;;;3.25;2.92;;;;;;;1.12;92.07;93910.41;2098827;28;20021;-82
2021/03/31 04:18:03;;;;;;;4.63;3.30;;;;;;;1.12;91.85;93917.56;2098252;28;20024;-83
2021/03/31 04:19:07;;;;;;;8.00;3.55;;;;;;;1.08;91.90;93912.19;2098174;28;20020;-83
2021/03/31 04:20:18;;;;;;;5.53;3.75;;;;;;;1.10;91.60;93917.91;2090700;28;20355;-83
2021/03/31 04:21:19;;;;;;;5.55;4.80;;;;;;;1.10;92.33;93920.53;2092554;28;20432;-83
2021/03/31 04:22:20;;;;;;;5.22;4.28;;;;;;;1.09;91.18;93921.59;2090595;28;20029;-82
2021/03/31 04:23:20;;;;;;;5.80;4.65;;;;;;;1.09;91.65;93913.72;2097948;28;20016;-83
2021/03/31 04:24:20;;;;;;;8.32;4.30;;;;;;;1.03;90.80;93915.06;2089876;28;20028;-83
2021/03/31 04:25:24;;;;;;;7.65;4.43;;;;;;;0.98;90.71;93917.94;2089724;28;20623;-83
2021/03/31 04:26:26;;;;;;;7.53;3.53;;;;;;;0.97;90.04;93919.03;2098728;28;20083;-82
2021/03/31 04:27:28;;;;;;;6.38;3.63;;;;;;;0.99;90.54;93914.97;2098305;28;20029;-82
2021/03/31 04:28:29;;;;;;;4.82;4.20;;;;;;;0.97;90.55;93921.69;2098108;28;20370;-84
2021/03/31 04:29:30;;;;;;;8.25;4.53;;;;;;;1.00;90.31;93924.38;2098059;28;20079;-83
2021/03/31 04:30:31;;;;;;;9.82;4.55;;;;;;;0.97;90.55;93919.03;2098105;28;20027;-83
2021/03/31 04:31:34;;;;;;;5.05;4.00;;;;;;;0.94;90.97;93917.84;2102530;28;20021;-83
2021/03/31 04:32:44;;;;;;;5.25;4.13;;;;;;;0.91;91.01;93921.13;2098317;28;20028;-83
2021/03/31 04:33:45;;;;;;;5.05;3.38;;;;;;;0.90;91.15;93911.69;2100075;28;20048;-84
2021/03/31 04:34:45;;;;;;;6.25;4.32;;;;;;;0.92;91.34;93912.16;2098095;28;20408;-82
2021/03/31 04:35:46;;;;;;;7.57;3.95;;;;;;;0.90;91.68;93913.56;2089957;28;20029;-83
2021/03/31 04:36:47;;;;;;;4.80;3.80;;;;;;;0.87;92.12;93915.00;2098049;28;20028;-82
2021/03/31 04:37:48;;;;;;;4.95;3.50;;;;;;;0.92;91.34;93914.00;2097909;28;20020;-83
2021/03/31 04:38:51;;;;;;;4.57;4.00;;;;;;;0.87;90.81;93906.34;2097907;28;20054;-83
2021/03/31 04:39:51;;;;;;;4.38;3.97;;;;;;;0.86;90.67;93915.34;2090041;28;20031;-83
2021/03/31 04:40:57;;;;;;;5.13;4.05;;;;;;;0.87;91.03;93904.47;2097927;28;20056;-84
2021/03/31 04:41:58;;;;;;;5.13;3.88;;;;;;;0.91;92.33;93912.47;2106897;28;20028;-82
2021/03/31 04:42:58;;;;;;;5.78;3.40;;;;;;;0.92;91.63;93914.00;2106442;28;20027;-83
2021/03/31 04:43:58;;;;;;;6.30;3.47;;;;;;;0.85;92.19;93914.56;2097684;28;20024;-83
2021/03/31 04:44:59;;;;;;;7.30;3.67;;;;;;;0.91;91.79;93915.09;2089339;28;20110;-82
2021/03/31 04:46:01;;;;;;;3.58;3.22;;;;;;;0.85;91.52;93913.81;2089697;28;20033;-83
2021/03/31 04:47:03;;;;;;;4.07;3.67;;;;;;;0.76;91.26;93911.31;2106559;28;20028;-84
2021/03/31 04:48:03;;;;;;;4.18;3.33;;;;;;;0.76;91.23;93913.94;2098140;28;20028;-83
2021/03/31 04:49:04;;;;;;;5.18;3.70;;;;;;;0.70;91.35;93915.25;2097781;28;20024;-83
2021/03/31 04:50:10;;;;;;;4.63;3.35;;;;;;;0.69;91.06;93917.13;2097685;28;20157;-82
2021/03/31 04:51:10;;;;;;;4.55;3.53;;;;;;;0.73;91.54;93918.00;2098506;28;20115;-83
2021/03/31 04:52:11;;;;;;;5.75;3.60;;;;;;;0.77;92.53;93922.59;2097927;28;20021;-82
2021/03/31 04:53:11;;;;;;;4.47;4.03;;;;;;;0.77;92.66;93918.09;2097937;28;20029;-83
2021/03/31 04:54:11;;;;;;;4.53;3.20;;;;;;;0.77;91.51;93912.09;2105854;28;20020;-83
2021/03/31 04:55:12;;;;;;;3.78;3.30;;;;;;;0.76;91.56;93916.59;2106169;28;20024;-83
2021/03/31 04:56:13;;;;;;;7.40;3.45;;;;;;;0.79;91.89;93915.94;2092030;28;20024;-83
2021/03/31 04:57:14;;;;;;;7.13;3.80;;;;;;;0.81;92.68;93913.72;2105167;28;20051;-83
2021/03/31 04:58:15;;;;;;;8.70;3.50;;;;;;;0.78;91.27;93918.88;2097084;28;20050;-82